Flagstaff, AZ (86002)

8:44 AM MST on December 28, 2014 (GMT -0700)
Elk Run | Change Station
CLOSE
Current Station
Personal Weather Station
Location: Flagstaff, AZ
Elevation: 6855 ft
Nearby Weather Stations

Elev 6855 ft 35.21 °N, 111.60 °W | Updated 6 seconds ago

Clear
Clear
18.1 °F
Feels Like 18 °F
N
2.9
Wind Variable Wind from WSW
Gusts 4.0 mph

Today
High -- | Low -- °F
--% Chance of Precip.
Yesterday
High -- | Low -- °F
Precip. -- in
7:33 AM 5:22 PM
Waxing Crescent, 49% visible
Pressure 30.32 in
Visibility 10.0 miles
Clouds Clear
Windchill 18 °F
Dew Point 8 °F
Humidity 64%
Rainfall 0.00 in
Snow Depth Not available.
UV 0 out of 12
Pollen 1.20 out of 12
Air Quality Not available.
Flu Activity Not available.
METAR KFLG 281457Z 23005KT 10SM CLR M10/M13 A3018 RMK AO2 SLP268 T11001133 53002

More Conditions Fewer Conditions

Pressure 30.32 in
Visibility 10.0 miles
Clouds Clear
Windchill 18 °F
Dew Point 8 °F
Humidity 64%
Rainfall 0.00 in
Snow Depth Not available.
UV 0 out of 12
Pollen 1.20 out of 12
Air Quality Not available.
Flu Activity Not available.
METAR KFLG 281457Z 23005KT 10SM CLR M10/M13 A3018 RMK AO2 SLP268 T11001133 53002

More Conditions Fewer Conditions

10-Day Weather Forecast

Almanac

Astronomy

Dec. 28, 2014 Rise Set
Actual Time
Civil Twilight
Nautical Twilight
Astronomical Twilight
Moon
Length of Visible Light
Length of Day
Tomorrow will be .
, % of the Moon is Illuminated

Today's Extremes

State Highs State Lows

Community

WunderPhotos

Upload Photos

1,781,309 photos uploaded!

WunderBlogs® & News

Nearby

Air Quality

  Air Quality AQ Index Pollutant
Not available.

Snow Depth

Station Depth Elevation

Earthquake Activity

City Distance Mag. Time & Date
Minimum magnitude displayed is 2.5.

Coastal Water Temperatures

Place Temperature

Nearby Weather Stations